Time;durP1;ratioP1;P1;durP2;ratioP2;P2;SDS_P1;SDS_P2;PMS_P1;PMS_P2;Temp;Humidity;BMP_temperature;BMP_pressure;BME280_temperature;BME280_humidity;BME280_pressure;Samples;Min_cycle;Max_cycle;Signal;HPM_P1;HPM_P2
2022/07/23 00:02:16;;;;;;;7.57;6.00;;;;;;;;;;6290680;28;20130;-73
2022/07/23 00:05:18;;;;;;;7.13;5.70;;;;;;;;;;6288917;28;20118;-74
2022/07/23 00:08:20;;;;;;;10.07;6.07;;;;;;;;;;6292405;28;20045;-74
2022/07/23 00:11:23;;;;;;;7.50;6.33;;;;;;;;;;6292383;28;20106;-75
2022/07/23 00:14:25;;;;;;;11.10;5.82;;;;;;;;;;6289604;28;20063;-74
2022/07/23 00:17:26;;;;;;;7.30;6.10;;;;;;;;;;6288683;28;20060;-75
2022/07/23 00:20:28;;;;;;;8.98;5.75;;;;;;;;;;6291287;28;20052;-75
2022/07/23 00:23:30;;;;;;;8.07;6.43;;;;;;;;;;6289243;28;20355;-74
2022/07/23 00:26:33;;;;;;;8.80;6.78;;;;;;;;;;6291864;28;20044;-76
2022/07/23 00:29:35;;;;;;;12.02;5.97;;;;;;;;;;6290857;28;20052;-74
2022/07/23 00:32:46;;;;;;;7.88;5.82;;;;;;;;;;6287886;28;20061;-74
2022/07/23 00:35:48;;;;;;;9.43;6.25;;;;;;;;;;6288261;28;20060;-74
2022/07/23 00:38:49;;;;;;;9.23;6.40;;;;;;;;;;6290751;28;20049;-74
2022/07/23 00:41:53;;;;;;;6.82;6.10;;;;;;;;;;6287285;28;20114;-74
2022/07/23 00:44:54;;;;;;;13.57;6.55;;;;;;;;;;6290829;28;20098;-74
2022/07/23 00:47:56;;;;;;;8.50;6.22;;;;;;;;;;6286366;28;20044;-73
2022/07/23 00:50:58;;;;;;;7.63;6.32;;;;;;;;;;6291627;28;20048;-75
2022/07/23 00:54:00;;;;;;;6.97;6.18;;;;;;;;;;6292945;28;20091;-74
2022/07/23 00:57:04;;;;;;;11.07;6.25;;;;;;;;;;6291208;28;20064;-74
2022/07/23 01:00:08;;;;;;;11.10;6.18;;;;;;;;;;6288864;28;20048;-75
2022/07/23 01:03:10;;;;;;;11.38;6.28;;;;;;;;;;6285956;28;20123;-75
2022/07/23 01:06:11;;;;;;;6.88;6.13;;;;;;;;;;6286571;28;20045;-74
2022/07/23 01:09:13;;;;;;;7.50;6.03;;;;;;;;;;6291760;28;20045;-75
2022/07/23 01:12:16;;;;;;;8.32;5.65;;;;;;;;;;6288105;28;20102;-75
2022/07/23 01:15:18;;;;;;;10.45;6.35;;;;;;;;;;6292557;28;20060;-74
2022/07/23 01:18:20;;;;;;;8.17;6.40;;;;;;;;;;6289726;28;20056;-74
2022/07/23 01:21:22;;;;;;;9.25;6.00;;;;;;;;;;6290763;28;20057;-74
2022/07/23 01:24:25;;;;;;;9.60;6.32;;;;;;;;;;6290390;28;20056;-74
2022/07/23 01:27:26;;;;;;;11.10;6.03;;;;;;;;;;6286608;28;20102;-75
2022/07/23 01:30:28;;;;;;;7.07;5.47;;;;;;;;;;6295111;28;20052;-75
2022/07/23 01:33:30;;;;;;;8.25;6.18;;;;;;;;;;6290762;28;20057;-71
2022/07/23 01:36:31;;;;;;;7.63;5.80;;;;;;;;;;6297707;28;20041;-75
2022/07/23 01:39:34;;;;;;;10.05;6.32;;;;;;;;;;6295544;28;21445;-76
2022/07/23 01:42:36;;;;;;;8.35;6.05;;;;;;;;;;6292694;28;20275;-71
2022/07/23 01:45:38;;;;;;;8.40;6.57;;;;;;;;;;6299145;28;20075;-74
2022/07/23 01:48:40;;;;;;;7.07;5.88;;;;;;;;;;6298914;28;20824;-76
2022/07/23 01:51:59;;;;;;;9.07;5.95;;;;;;;;;;6299330;28;20344;-76
2022/07/23 01:55:02;;;;;;;11.90;6.35;;;;;;;;;;6301683;28;20067;-76
2022/07/23 01:58:05;;;;;;;13.50;6.25;;;;;;;;;;6290312;28;20110;-73
2022/07/23 02:01:06;;;;;;;8.57;6.05;;;;;;;;;;6297082;28;20073;-72
2022/07/23 02:04:08;;;;;;;9.90;6.05;;;;;;;;;;6305135;28;20060;-75
2022/07/23 02:07:10;;;;;;;7.90;5.95;;;;;;;;;;6295132;28;20040;-72
2022/07/23 02:10:13;;;;;;;14.88;7.03;;;;;;;;;;6299947;28;20041;-74
2022/07/23 02:13:14;;;;;;;10.50;7.00;;;;;;;;;;6305081;28;20126;-73
2022/07/23 02:16:16;;;;;;;7.22;6.22;;;;;;;;;;6292549;28;20374;-74
2022/07/23 02:19:18;;;;;;;7.40;6.53;;;;;;;;;;6292117;28;20053;-71
2022/07/23 02:22:19;;;;;;;9.85;6.30;;;;;;;;;;6292006;28;20229;-74
2022/07/23 02:25:22;;;;;;;12.48;6.65;;;;;;;;;;6292769;28;20220;-74
2022/07/23 02:28:24;;;;;;;8.25;5.63;;;;;;;;;;6295355;28;20274;-71
2022/07/23 02:31:25;;;;;;;13.07;6.43;;;;;;;;;;6288767;28;20056;-71
2022/07/23 02:34:27;;;;;;;9.48;6.60;;;;;;;;;;6292104;28;20319;-73
2022/07/23 02:37:29;;;;;;;11.52;6.47;;;;;;;;;;6295293;28;20060;-73
2022/07/23 02:40:32;;;;;;;9.73;6.65;;;;;;;;;;6289868;28;20728;-74
2022/07/23 02:43:33;;;;;;;13.75;6.88;;;;;;;;;;6290168;28;20048;-73
2022/07/23 02:46:35;;;;;;;15.70;7.07;;;;;;;;;;6290886;28;20109;-74
2022/07/23 02:49:37;;;;;;;7.53;6.30;;;;;;;;;;6292858;28;20072;-75
2022/07/23 02:52:38;;;;;;;9.38;6.75;;;;;;;;;;6291227;28;20052;-74
2022/07/23 02:55:41;;;;;;;8.57;6.40;;;;;;;;;;6294711;28;20056;-71
2022/07/23 02:58:43;;;;;;;18.45;6.68;;;;;;;;;;6290772;28;20209;-74
2022/07/23 03:01:45;;;;;;;17.70;9.25;;;;;;;;;;6290778;28;20048;-74
2022/07/23 03:04:47;;;;;;;11.85;7.45;;;;;;;;;;6290796;28;20093;-74
2022/07/23 03:07:48;;;;;;;8.45;6.70;;;;;;;;;;6295675;28;20051;-74
2022/07/23 03:10:51;;;;;;;8.88;6.00;;;;;;;;;;6290256;28;20049;-73
2022/07/23 03:13:53;;;;;;;12.27;6.72;;;;;;;;;;6290436;28;20048;-74
2022/07/23 03:16:55;;;;;;;15.27;6.68;;;;;;;;;;6291299;28;20048;-73
2022/07/23 03:19:57;;;;;;;10.57;6.78;;;;;;;;;;6292402;28;20120;-75
2022/07/23 03:22:59;;;;;;;10.20;7.07;;;;;;;;;;6291875;28;20057;-76
2022/07/23 03:26:02;;;;;;;8.20;6.35;;;;;;;;;;6288581;28;20466;-72
2022/07/23 03:29:04;;;;;;;10.27;6.90;;;;;;;;;;6289426;28;20348;-74
2022/07/23 03:32:06;;;;;;;8.80;6.30;;;;;;;;;;6292371;28;20049;-75
2022/07/23 03:35:08;;;;;;;10.18;7.22;;;;;;;;;;6287879;28;20040;-75
2022/07/23 03:38:10;;;;;;;8.85;6.80;;;;;;;;;;6294484;28;20327;-74
2022/07/23 03:41:13;;;;;;;9.20;6.45;;;;;;;;;;6292047;28;20053;-74
2022/07/23 03:44:15;;;;;;;7.75;6.50;;;;;;;;;;6289621;28;20057;-73
2022/07/23 03:47:21;;;;;;;11.18;7.28;;;;;;;;;;6292039;28;20052;-74
2022/07/23 03:50:23;;;;;;;11.38;6.65;;;;;;;;;;6316696;28;20053;-75
2022/07/23 03:53:25;;;;;;;11.48;7.22;;;;;;;;;;6313643;28;20213;-73
2022/07/23 03:56:28;;;;;;;9.65;7.05;;;;;;;;;;6314329;28;21190;-75
2022/07/23 03:59:29;;;;;;;9.60;6.95;;;;;;;;;;6313931;28;20049;-74
2022/07/23 04:02:31;;;;;;;8.55;7.22;;;;;;;;;;6318071;28;20052;-75
2022/07/23 04:05:33;;;;;;;11.27;6.68;;;;;;;;;;6314228;28;20102;-75
2022/07/23 04:08:35;;;;;;;9.73;6.97;;;;;;;;;;6314905;28;20090;-75
2022/07/23 04:11:38;;;;;;;12.13;7.82;;;;;;;;;;6318923;28;20047;-75
2022/07/23 04:14:40;;;;;;;9.25;6.78;;;;;;;;;;6315857;28;20043;-75
2022/07/23 04:17:43;;;;;;;10.95;7.18;;;;;;;;;;6315293;28;20047;-75
2022/07/23 04:20:45;;;;;;;9.10;7.13;;;;;;;;;;6313834;28;20088;-75
2022/07/23 04:23:47;;;;;;;11.38;6.68;;;;;;;;;;6313680;28;20314;-73
2022/07/23 04:26:50;;;;;;;10.73;6.82;;;;;;;;;;6312230;28;20235;-72
2022/07/23 04:29:52;;;;;;;12.57;7.43;;;;;;;;;;6314147;28;20060;-74
2022/07/23 04:32:54;;;;;;;10.88;7.28;;;;;;;;;;6312957;28;20044;-74
2022/07/23 04:35:56;;;;;;;9.05;7.40;;;;;;;;;;6315719;28;20323;-75
2022/07/23 04:38:58;;;;;;;8.98;7.07;;;;;;;;;;6314296;28;20292;-75
2022/07/23 04:42:01;;;;;;;9.57;6.18;;;;;;;;;;6312055;28;20068;-75
2022/07/23 04:45:03;;;;;;;11.82;6.80;;;;;;;;;;6313561;28;20047;-74
2022/07/23 04:48:06;;;;;;;10.15;6.57;;;;;;;;;;6311487;28;20111;-74
2022/07/23 04:51:08;;;;;;;10.80;7.38;;;;;;;;;;6317994;28;20048;-74
2022/07/23 04:54:09;;;;;;;10.45;6.85;;;;;;;;;;6313030;28;20056;-74
2022/07/23 04:57:12;;;;;;;10.10;6.90;;;;;;;;;;6299004;28;20045;-74
2022/07/23 05:00:15;;;;;;;9.32;6.35;;;;;;;;;;6288227;28;20133;-74
2022/07/23 05:03:17;;;;;;;11.32;6.65;;;;;;;;;;6290647;28;20086;-74
2022/07/23 05:06:18;;;;;;;7.90;7.10;;;;;;;;;;6290600;28;20040;-74
2022/07/23 05:09:20;;;;;;;10.00;6.93;;;;;;;;;;6291334;28;20970;-73
2022/07/23 05:12:23;;;;;;;7.97;6.68;;;;;;;;;;6296159;28;20044;-73
2022/07/23 05:15:25;;;;;;;12.10;7.60;;;;;;;;;;6295783;28;20056;-74
2022/07/23 05:18:27;;;;;;;10.30;6.78;;;;;;;;;;6293114;28;20061;-75
2022/07/23 05:21:29;;;;;;;9.90;7.03;;;;;;;;;;6290607;28;20401;-74
2022/07/23 05:24:31;;;;;;;12.98;7.90;;;;;;;;;;6294512;28;20102;-74
2022/07/23 05:27:34;;;;;;;11.00;6.90;;;;;;;;;;6292664;28;20059;-72
2022/07/23 05:30:36;;;;;;;11.88;6.82;;;;;;;;;;6297142;28;20068;-74
2022/07/23 05:33:38;;;;;;;8.07;5.70;;;;;;;;;;6293699;28;20117;-74
2022/07/23 05:36:40;;;;;;;6.88;5.05;;;;;;;;;;6293921;28;20234;-73
2022/07/23 05:39:42;;;;;;;10.27;5.32;;;;;;;;;;6295547;28;20053;-74
2022/07/23 05:42:45;;;;;;;8.73;5.90;;;;;;;;;;6294759;28;20079;-73
2022/07/23 05:45:47;;;;;;;10.15;4.93;;;;;;;;;;6293145;28;20049;-72
2022/07/23 05:48:50;;;;;;;9.00;4.80;;;;;;;;;;6296073;28;20045;-75
2022/07/23 05:51:52;;;;;;;10.05;4.30;;;;;;;;;;6292360;28;20057;-74
2022/07/23 05:54:54;;;;;;;8.60;4.70;;;;;;;;;;6295294;28;20056;-74
2022/07/23 05:57:57;;;;;;;6.65;4.55;;;;;;;;;;6297367;28;20359;-74
2022/07/23 06:00:59;;;;;;;6.45;4.43;;;;;;;;;;6291188;28;20056;-74
2022/07/23 06:04:01;;;;;;;6.53;4.32;;;;;;;;;;6291239;28;20053;-73
2022/07/23 06:07:02;;;;;;;10.60;3.92;;;;;;;;;;6294564;28;20056;-75
2022/07/23 06:10:05;;;;;;;7.78;4.28;;;;;;;;;;6289189;28;20259;-74
2022/07/23 06:13:08;;;;;;;11.68;4.45;;;;;;;;;;6288539;28;20063;-73
2022/07/23 06:16:10;;;;;;;8.40;3.90;;;;;;;;;;6291695;28;20236;-71
2022/07/23 06:19:12;;;;;;;6.37;3.33;;;;;;;;;;6292199;28;20336;-74
2022/07/23 06:22:13;;;;;;;4.60;3.33;;;;;;;;;;6291022;28;20323;-74
2022/07/23 06:25:16;;;;;;;7.22;3.75;;;;;;;;;;6296612;28;20057;-74
2022/07/23 06:28:19;;;;;;;4.20;3.22;;;;;;;;;;6295617;28;20270;-75
2022/07/23 06:31:20;;;;;;;7.40;4.00;;;;;;;;;;6293954;28;20327;-72
2022/07/23 06:34:22;;;;;;;11.60;3.58;;;;;;;;;;6294990;28;20060;-74
2022/07/23 06:37:24;;;;;;;6.72;3.33;;;;;;;;;;6296587;28;20282;-74
2022/07/23 06:40:25;;;;;;;8.70;3.55;;;;;;;;;;6292477;28;20830;-74
2022/07/23 06:43:31;;;;;;;5.30;3.33;;;;;;;;;;6292950;28;20056;-74
2022/07/23 06:46:33;;;;;;;5.85;3.72;;;;;;;;;;6292416;28;20408;-74
2022/07/23 06:49:35;;;;;;;5.80;3.50;;;;;;;;;;6294455;28;20068;-74
2022/07/23 06:52:36;;;;;;;7.80;4.13;;;;;;;;;;6294438;28;20175;-74
2022/07/23 06:55:39;;;;;;;6.30;4.38;;;;;;;;;;6292722;28;20298;-74
2022/07/23 06:58:42;;;;;;;7.22;4.75;;;;;;;;;;6290440;28;20071;-74
2022/07/23 07:01:44;;;;;;;5.57;4.00;;;;;;;;;;6288612;28;20052;-75
2022/07/23 07:04:46;;;;;;;8.70;4.53;;;;;;;;;;6288866;28;20048;-73
2022/07/23 07:07:48;;;;;;;7.07;4.17;;;;;;;;;;6291141;28;20235;-73
2022/07/23 07:10:49;;;;;;;5.88;4.65;;;;;;;;;;6292383;28;20046;-73
2022/07/23 07:13:53;;;;;;;8.45;4.75;;;;;;;;;;6292304;28;20056;-74
2022/07/23 07:16:54;;;;;;;6.97;4.97;;;;;;;;;;6293426;28;20332;-73
2022/07/23 07:19:56;;;;;;;7.53;5.60;;;;;;;;;;6292295;28;20095;-75
2022/07/23 07:22:58;;;;;;;8.40;5.25;;;;;;;;;;6291361;28;20339;-75
2022/07/23 07:25:59;;;;;;;6.70;4.40;;;;;;;;;;6291546;28;20057;-74
2022/07/23 07:29:02;;;;;;;6.75;4.85;;;;;;;;;;6295370;28;20049;-74
2022/07/23 07:32:05;;;;;;;11.25;5.75;;;;;;;;;;6294489;28;20796;-74
2022/07/23 07:35:07;;;;;;;6.63;5.35;;;;;;;;;;6291015;28;20061;-71
2022/07/23 07:38:09;;;;;;;6.90;4.95;;;;;;;;;;6292732;28;20044;-74
2022/07/23 07:41:12;;;;;;;7.05;5.20;;;;;;;;;;6292834;28;20244;-73
2022/07/23 07:44:14;;;;;;;;;;;;;;;;;;6290877;28;20107;-74
2022/07/23 07:47:16;;;;;;;5.93;4.70;;;;;;;;;;6290406;28;20085;-74
2022/07/23 07:50:18;;;;;;;7.75;5.10;;;;;;;;;;6287926;28;20118;-73
2022/07/23 07:53:19;;;;;;;6.70;5.25;;;;;;;;;;6289212;28;20240;-72
2022/07/23 07:56:21;;;;;;;7.03;4.88;;;;;;;;;;6288868;28;20045;-74
2022/07/23 07:59:25;;;;;;;7.63;5.63;;;;;;;;;;6289930;28;20071;-73
2022/07/23 08:02:26;;;;;;;8.48;5.43;;;;;;;;;;6290018;28;20332;-74
2022/07/23 08:05:30;;;;;;;7.82;5.10;;;;;;;;;;6289117;28;20056;-73
2022/07/23 08:08:31;;;;;;;7.57;5.20;;;;;;;;;;6288786;28;20312;-73
2022/07/23 08:11:33;;;;;;;6.53;5.35;;;;;;;;;;6291350;28;20069;-74
2022/07/23 08:14:36;;;;;;;8.23;5.32;;;;;;;;;;6293560;28;20052;-73
2022/07/23 08:17:38;;;;;;;11.70;5.32;;;;;;;;;;6293726;28;20286;-73
2022/07/23 08:20:40;;;;;;;7.22;5.28;;;;;;;;;;6289939;28;22065;-74
2022/07/23 08:23:41;;;;;;;8.40;5.40;;;;;;;;;;6287025;28;20056;-74
2022/07/23 08:26:43;;;;;;;7.23;5.37;;;;;;;;;;6289674;28;20048;-75
2022/07/23 08:29:46;;;;;;;6.80;6.03;;;;;;;;;;6285951;28;20044;-73
2022/07/23 08:32:52;;;;;;;6.65;5.60;;;;;;;;;;6289838;28;20473;-74
2022/07/23 08:35:54;;;;;;;7.90;5.57;;;;;;;;;;6290431;28;20055;-74
2022/07/23 08:38:55;;;;;;;8.80;6.18;;;;;;;;;;6291077;28;20057;-74
2022/07/23 08:41:57;;;;;;;11.57;6.50;;;;;;;;;;6289761;28;20094;-73
2022/07/23 08:45:00;;;;;;;12.47;5.97;;;;;;;;;;6290592;28;20053;-75
2022/07/23 08:48:02;;;;;;;7.93;5.93;;;;;;;;;;6290728;28;20052;-75
2022/07/23 08:51:04;;;;;;;12.85;7.05;;;;;;;;;;6288067;28;20167;-74
2022/07/23 08:54:06;;;;;;;11.48;6.47;;;;;;;;;;6288881;28;20708;-74
2022/07/23 08:57:08;;;;;;;11.23;6.30;;;;;;;;;;6290435;28;20048;-75
2022/07/23 09:00:12;;;;;;;12.20;6.10;;;;;;;;;;6286818;28;20291;-74
2022/07/23 09:03:17;;;;;;;6.95;6.25;;;;;;;;;;6291694;28;20053;-73
2022/07/23 09:06:18;;;;;;;8.10;6.30;;;;;;;;;;6291174;28;20155;-75
2022/07/23 09:09:21;;;;;;;10.90;7.43;;;;;;;;;;6289871;28;20052;-74
2022/07/23 09:12:26;;;;;;;8.02;6.20;;;;;;;;;;6288460;28;20463;-74
2022/07/23 09:15:30;;;;;;;8.32;6.72;;;;;;;;;;6293883;28;20055;-74
2022/07/23 09:18:39;;;;;;;10.75;7.13;;;;;;;;;;6289838;28;20061;-74
2022/07/23 09:21:40;;;;;;;9.82;7.07;;;;;;;;;;6287736;28;20146;-73
2022/07/23 09:25:03;;;;;;;9.53;6.93;;;;;;;;;;6286625;28;20044;-73
2022/07/23 09:28:07;;;;;;;;;;;;;;;;;;6288505;28;20474;-74
2022/07/23 09:31:10;;;;;;;9.20;6.85;;;;;;;;;;6288488;28;19917;-73
2022/07/23 09:34:14;;;;;;;8.30;6.90;;;;;;;;;;6289025;28;20267;-74
2022/07/23 09:37:18;;;;;;;11.57;7.32;;;;;;;;;;6293034;28;20044;-74
2022/07/23 09:40:20;;;;;;;8.05;7.25;;;;;;;;;;6313696;28;20117;-75
2022/07/23 09:43:28;;;;;;;7.77;6.97;;;;;;;;;;6314259;28;20063;-75
2022/07/23 09:46:31;;;;;;;7.88;6.72;;;;;;;;;;6316231;28;20496;-74
2022/07/23 09:49:32;;;;;;;7.72;6.93;;;;;;;;;;6310880;28;20086;-73
2022/07/23 09:52:35;;;;;;;9.50;6.73;;;;;;;;;;6312625;28;20056;-75
2022/07/23 09:55:38;;;;;;;8.10;6.53;;;;;;;;;;6312540;28;20481;-74
2022/07/23 09:58:49;;;;;;;8.40;7.35;;;;;;;;;;6318714;28;20111;-74
2022/07/23 10:01:54;;;;;;;8.85;7.30;;;;;;;;;;6293077;28;20037;-75
2022/07/23 10:04:56;;;;;;;8.52;7.40;;;;;;;;;;6293286;28;20083;-74
2022/07/23 10:07:59;;;;;;;8.90;7.22;;;;;;;;;;6292938;28;20064;-75
2022/07/23 10:11:01;;;;;;;10.30;7.10;;;;;;;;;;6294841;28;20085;-74
2022/07/23 10:14:04;;;;;;;10.07;7.85;;;;;;;;;;6293029;28;20099;-74
2022/07/23 10:17:08;;;;;;;8.30;7.20;;;;;;;;;;6295999;28;20044;-77
2022/07/23 10:20:10;;;;;;;10.93;7.30;;;;;;;;;;6292366;28;20044;-78
2022/07/23 10:23:17;;;;;;;8.88;7.10;;;;;;;;;;6294122;28;20063;-77
2022/07/23 10:26:25;;;;;;;10.00;6.70;;;;;;;;;;6291332;28;20064;-77
2022/07/23 10:29:40;;;;;;;8.70;7.03;;;;;;;;;;6292478;28;20232;-76
2022/07/23 10:32:48;;;;;;;8.55;7.05;;;;;;;;;;6293053;28;20044;-76
2022/07/23 10:35:55;;;;;;;8.25;6.78;;;;;;;;;;6297607;28;20106;-77
2022/07/23 10:38:59;;;;;;;11.38;6.82;;;;;;;;;;6290497;28;20328;-77
2022/07/23 10:42:12;;;;;;;11.98;7.32;;;;;;;;;;6292687;28;20048;-77
2022/07/23 10:45:31;;;;;;;9.45;7.32;;;;;;;;;;6296182;28;20213;-77
2022/07/23 10:48:34;;;;;;;9.02;6.95;;;;;;;;;;6296740;28;20063;-74
2022/07/23 10:51:35;;;;;;;7.85;7.05;;;;;;;;;;6293201;28;20330;-79
2022/07/23 10:54:37;;;;;;;8.35;7.53;;;;;;;;;;6290267;28;20340;-76
2022/07/23 10:57:49;;;;;;;7.47;6.78;;;;;;;;;;6309688;28;20056;-78
2022/07/23 11:00:51;;;;;;;10.13;6.82;;;;;;;;;;6293902;28;20041;-74
2022/07/23 11:03:58;;;;;;;;;;;;;;;;;;6293428;28;20059;-78
2022/07/23 11:07:12;;;;;;;9.45;6.60;;;;;;;;;;6295600;28;19924;-77
2022/07/23 11:10:33;;;;;;;12.32;6.65;;;;;;;;;;6293271;28;20645;-77
2022/07/23 11:13:40;;;;;;;7.43;6.72;;;;;;;;;;6292100;28;20044;-77
2022/07/23 11:16:47;;;;;;;8.18;6.38;;;;;;;;;;6294256;28;20240;-76
2022/07/23 11:20:21;;;;;;;9.57;6.60;;;;;;;;;;6288876;28;20052;-76
2022/07/23 11:23:23;;;;;;;9.02;6.90;;;;;;;;;;6291765;28;20052;-77
2022/07/23 11:26:44;;;;;;;7.35;6.72;;;;;;;;;;6291225;28;20044;-78
2022/07/23 11:29:48;;;;;;;10.40;7.50;;;;;;;;;;6293133;28;20049;-78
2022/07/23 11:32:50;;;;;;;11.27;6.80;;;;;;;;;;6293500;28;20045;-77
2022/07/23 11:36:03;;;;;;;12.85;7.57;;;;;;;;;;6293823;28;20049;-77
2022/07/23 11:39:05;;;;;;;9.52;6.75;;;;;;;;;;6290707;28;20053;-77
2022/07/23 11:42:07;;;;;;;;;;;;;;;;;;6292013;28;20354;-77
2022/07/23 11:45:09;;;;;;;;;;;;;;;;;;6290503;28;20915;-77
2022/07/23 11:48:17;;;;;;;13.60;6.10;;;;;;;;;;6293582;28;19995;-76
2022/07/23 11:51:27;;;;;;;9.57;5.75;;;;;;;;;;6294159;28;20115;-76
2022/07/23 11:54:29;;;;;;;7.40;5.72;;;;;;;;;;6291562;28;20052;-76
2022/07/23 11:57:32;;;;;;;8.25;6.05;;;;;;;;;;6294200;28;20059;-77
2022/07/23 12:00:34;;;;;;;7.97;6.68;;;;;;;;;;6294358;28;20098;-74
2022/07/23 12:03:36;;;;;;;8.20;6.22;;;;;;;;;;6290533;28;20142;-76
2022/07/23 12:06:39;;;;;;;;;;;;;;;;;;6289816;28;20041;-75
2022/07/23 12:09:44;;;;;;;9.60;6.00;;;;;;;;;;6290576;28;20065;-76
2022/07/23 12:12:49;;;;;;;8.20;6.50;;;;;;;;;;6289526;28;20057;-76
2022/07/23 12:15:53;;;;;;;7.85;6.80;;;;;;;;;;6291022;28;20044;-77
2022/07/23 12:18:55;;;;;;;9.85;6.43;;;;;;;;;;6288080;28;20095;-74
2022/07/23 12:21:58;;;;;;;8.30;6.15;;;;;;;;;;6290254;28;20115;-77
2022/07/23 12:25:02;;;;;;;9.13;6.65;;;;;;;;;;6288663;28;20064;-76
2022/07/23 12:28:06;;;;;;;8.00;7.18;;;;;;;;;;6288374;28;20060;-75
2022/07/23 12:31:08;;;;;;;8.00;7.10;;;;;;;;;;6294483;28;20057;-75
2022/07/23 12:34:15;;;;;;;8.07;7.32;;;;;;;;;;6289929;28;20071;-76
2022/07/23 12:37:32;;;;;;;10.43;7.90;;;;;;;;;;6291392;28;20048;-76
2022/07/23 12:40:36;;;;;;;9.70;8.20;;;;;;;;;;6291409;28;20044;-76
2022/07/23 12:43:40;;;;;;;8.57;7.10;;;;;;;;;;6290719;28;20056;-76
2022/07/23 12:46:42;;;;;;;8.20;7.20;;;;;;;;;;6288833;28;20392;-76
2022/07/23 12:49:44;;;;;;;9.10;7.18;;;;;;;;;;6289670;28;20049;-76
2022/07/23 12:52:47;;;;;;;9.77;6.97;;;;;;;;;;6289838;28;20662;-75
2022/07/23 12:55:50;;;;;;;8.52;6.90;;;;;;;;;;6288654;28;20052;-77
2022/07/23 12:58:54;;;;;;;7.68;6.95;;;;;;;;;;6288648;28;20079;-77
2022/07/23 13:01:58;;;;;;;10.95;7.47;;;;;;;;;;6288874;28;20049;-76
2022/07/23 13:04:59;;;;;;;8.07;7.28;;;;;;;;;;6287688;28;20048;-77
2022/07/23 13:08:03;;;;;;;8.02;6.85;;;;;;;;;;6286681;28;20059;-77
2022/07/23 13:11:06;;;;;;;10.57;7.18;;;;;;;;;;6290697;28;20159;-76
2022/07/23 13:14:08;;;;;;;11.27;7.63;;;;;;;;;;6288796;28;20061;-77
2022/07/23 13:17:10;;;;;;;12.23;7.90;;;;;;;;;;6291425;28;20064;-76
2022/07/23 13:20:12;;;;;;;9.00;8.10;;;;;;;;;;6287330;28;20067;-76
2022/07/23 13:23:16;;;;;;;12.05;8.45;;;;;;;;;;6289905;28;20063;-76
2022/07/23 13:26:18;;;;;;;9.10;8.20;;;;;;;;;;6292814;28;20044;-76
2022/07/23 13:29:20;;;;;;;8.82;7.63;;;;;;;;;;6293767;28;20060;-77
2022/07/23 13:32:21;;;;;;;;;;;;;;;;;;6291696;28;20392;-76
2022/07/23 13:35:24;;;;;;;8.90;7.95;;;;;;;;;;6299558;28;19931;-76
2022/07/23 13:38:27;;;;;;;12.73;8.32;;;;;;;;;;6296274;28;20223;-77
2022/07/23 13:41:28;;;;;;;9.57;7.93;;;;;;;;;;6294046;28;20052;-76
2022/07/23 13:44:30;;;;;;;9.43;8.45;;;;;;;;;;6299264;28;20041;-77
2022/07/23 13:47:32;;;;;;;10.88;8.48;;;;;;;;;;6298628;28;20052;-76
2022/07/23 13:50:34;;;;;;;10.52;8.35;;;;;;;;;;6295247;28;20055;-75
2022/07/23 13:53:37;;;;;;;11.20;8.35;;;;;;;;;;6295578;28;20044;-75
2022/07/23 13:56:38;;;;;;;11.15;8.02;;;;;;;;;;6300471;28;20072;-74
2022/07/23 13:59:40;;;;;;;9.95;7.90;;;;;;;;;;6292805;28;20064;-75
2022/07/23 14:02:42;;;;;;;12.30;7.30;;;;;;;;;;6293120;28;20049;-74
2022/07/23 14:05:44;;;;;;;9.38;7.20;;;;;;;;;;6293655;28;20044;-75
2022/07/23 14:08:47;;;;;;;10.45;7.70;;;;;;;;;;6296661;28;20048;-75
2022/07/23 14:11:50;;;;;;;8.13;7.10;;;;;;;;;;6296250;28;20041;-75
2022/07/23 14:14:52;;;;;;;11.15;6.53;;;;;;;;;;6298287;28;20096;-75
2022/07/23 14:17:54;;;;;;;9.85;6.90;;;;;;;;;;6298947;28;20347;-75
2022/07/23 14:20:56;;;;;;;7.45;6.72;;;;;;;;;;6296764;28;20056;-74
2022/07/23 14:23:59;;;;;;;7.20;6.50;;;;;;;;;;6294623;28;20053;-74
2022/07/23 14:27:02;;;;;;;8.43;6.72;;;;;;;;;;6301741;28;20060;-74
2022/07/23 14:30:05;;;;;;;7.75;6.70;;;;;;;;;;6293212;28;20079;-74
2022/07/23 14:33:07;;;;;;;9.48;7.10;;;;;;;;;;6294306;28;20130;-75
2022/07/23 14:36:09;;;;;;;8.02;7.25;;;;;;;;;;6299064;28;20048;-75
2022/07/23 14:39:12;;;;;;;14.02;7.60;;;;;;;;;;6298147;28;20055;-74
2022/07/23 14:42:14;;;;;;;9.38;6.57;;;;;;;;;;6296156;28;20049;-75
2022/07/23 14:45:16;;;;;;;10.07;6.85;;;;;;;;;;6300560;28;20060;-75
2022/07/23 14:48:17;;;;;;;7.28;6.50;;;;;;;;;;6282092;28;20115;-75
2022/07/23 14:51:19;;;;;;;7.32;6.03;;;;;;;;;;6291849;28;20108;-75
2022/07/23 14:54:22;;;;;;;6.90;6.30;;;;;;;;;;6296610;28;20381;-74
2022/07/23 14:57:24;;;;;;;7.78;6.45;;;;;;;;;;6292134;28;20053;-74
2022/07/23 15:00:26;;;;;;;6.90;6.30;;;;;;;;;;6293228;28;20044;-74
2022/07/23 15:03:27;;;;;;;7.85;7.10;;;;;;;;;;6291538;28;20056;-75
2022/07/23 15:06:29;;;;;;;9.15;7.85;;;;;;;;;;6290383;28;20041;-75
2022/07/23 15:09:32;;;;;;;9.63;6.80;;;;;;;;;;6292874;28;20065;-76
2022/07/23 15:12:34;;;;;;;8.20;7.18;;;;;;;;;;6291349;28;20507;-74
2022/07/23 15:15:36;;;;;;;9.88;6.85;;;;;;;;;;6290544;28;20241;-74
2022/07/23 15:18:37;;;;;;;10.02;6.80;;;;;;;;;;6291693;28;20055;-75
2022/07/23 15:21:39;;;;;;;8.73;6.63;;;;;;;;;;6290379;28;20057;-75
2022/07/23 15:24:42;;;;;;;11.75;6.75;;;;;;;;;;6288474;28;20048;-75
2022/07/23 15:27:44;;;;;;;8.10;6.75;;;;;;;;;;6289594;28;20052;-72
2022/07/23 15:30:45;;;;;;;8.68;7.15;;;;;;;;;;6294311;28;20382;-75
2022/07/23 15:33:47;;;;;;;10.82;6.22;;;;;;;;;;6292406;28;20045;-75
2022/07/23 15:36:49;;;;;;;11.80;6.82;;;;;;;;;;6298109;28;20068;-74
2022/07/23 15:39:52;;;;;;;10.30;7.65;;;;;;;;;;6288581;28;20343;-74
2022/07/23 15:42:54;;;;;;;8.57;7.78;;;;;;;;;;6292948;28;20049;-74
2022/07/23 15:45:55;;;;;;;10.90;7.57;;;;;;;;;;6295795;28;20041;-74
2022/07/23 15:48:57;;;;;;;13.98;7.22;;;;;;;;;;6292138;28;20048;-74
2022/07/23 15:51:59;;;;;;;11.07;7.80;;;;;;;;;;6293185;28;20048;-74
2022/07/23 15:55:03;;;;;;;8.15;7.35;;;;;;;;;;6291281;28;20465;-76
2022/07/23 15:58:05;;;;;;;9.07;7.30;;;;;;;;;;6299823;28;20286;-75
2022/07/23 16:01:07;;;;;;;9.98;7.50;;;;;;;;;;6293827;28;20099;-74
2022/07/23 16:04:08;;;;;;;;;;;;;;;;;;6295441;28;20122;-76
2022/07/23 16:07:10;;;;;;;9.48;7.40;;;;;;;;;;6299745;28;19961;-76
2022/07/23 16:10:13;;;;;;;9.43;7.75;;;;;;;;;;6292342;28;20048;-77
2022/07/23 16:13:15;;;;;;;9.52;8.13;;;;;;;;;;6295608;28;20055;-76
2022/07/23 16:16:17;;;;;;;11.00;8.05;;;;;;;;;;6296095;28;20106;-77
2022/07/23 16:19:18;;;;;;;12.25;7.97;;;;;;;;;;6294092;28;20091;-77
2022/07/23 16:22:20;;;;;;;8.13;7.38;;;;;;;;;;6321185;28;20270;-78
2022/07/23 16:25:24;;;;;;;10.82;7.57;;;;;;;;;;6321379;28;20230;-75
2022/07/23 16:28:26;;;;;;;10.23;8.00;;;;;;;;;;6308238;28;20181;-76
2022/07/23 16:31:30;;;;;;;8.80;7.30;;;;;;;;;;6291420;28;20100;-75
2022/07/23 16:34:32;;;;;;;8.43;7.03;;;;;;;;;;6297266;28;20048;-75
2022/07/23 16:37:34;;;;;;;9.60;7.38;;;;;;;;;;6294669;28;20055;-76
2022/07/23 16:40:37;;;;;;;10.73;7.50;;;;;;;;;;6292578;28;20053;-76
2022/07/23 16:43:40;;;;;;;10.20;8.13;;;;;;;;;;6297409;28;20178;-75
2022/07/23 16:46:41;;;;;;;8.18;7.38;;;;;;;;;;6295873;28;20082;-75
2022/07/23 16:49:43;;;;;;;11.07;7.63;;;;;;;;;;6292925;28;20048;-75
2022/07/23 16:52:45;;;;;;;11.05;7.93;;;;;;;;;;6296042;28;20053;-75
2022/07/23 16:55:48;;;;;;;9.57;8.20;;;;;;;;;;6294285;28;20335;-75
2022/07/23 16:58:49;;;;;;;9.90;7.90;;;;;;;;;;6294269;28;20048;-75
2022/07/23 17:01:51;;;;;;;11.38;7.65;;;;;;;;;;6288608;28;20041;-75
2022/07/23 17:04:53;;;;;;;9.73;7.05;;;;;;;;;;6289114;28;20542;-75
2022/07/23 17:07:54;;;;;;;10.90;7.90;;;;;;;;;;6291691;28;20052;-75
2022/07/23 17:10:57;;;;;;;12.00;7.60;;;;;;;;;;6294442;28;20469;-75
2022/07/23 17:13:59;;;;;;;8.10;7.15;;;;;;;;;;6291443;28;20068;-75
2022/07/23 17:17:01;;;;;;;11.13;7.85;;;;;;;;;;6297059;28;20048;-75
2022/07/23 17:20:04;;;;;;;11.25;7.80;;;;;;;;;;6295525;28;20275;-75
2022/07/23 17:23:06;;;;;;;8.45;7.65;;;;;;;;;;6291212;28;20120;-75
2022/07/23 17:26:09;;;;;;;8.93;7.50;;;;;;;;;;6293114;28;20247;-75
2022/07/23 17:29:11;;;;;;;10.57;8.05;;;;;;;;;;6293193;28;20106;-76
2022/07/23 17:32:13;;;;;;;13.25;8.25;;;;;;;;;;6294497;28;20052;-76
2022/07/23 17:35:14;;;;;;;9.30;8.27;;;;;;;;;;6295912;28;20044;-76
2022/07/23 17:38:16;;;;;;;9.43;7.80;;;;;;;;;;6291505;28;20455;-74
2022/07/23 17:41:19;;;;;;;13.57;8.53;;;;;;;;;;6295350;28;20052;-75
2022/07/23 17:44:21;;;;;;;9.35;7.70;;;;;;;;;;6296059;28;20360;-75
2022/07/23 17:47:23;;;;;;;11.03;7.97;;;;;;;;;;6295288;28;20340;-73
2022/07/23 17:50:24;;;;;;;9.35;8.23;;;;;;;;;;6293801;28;20051;-75
2022/07/23 17:53:27;;;;;;;14.85;8.43;;;;;;;;;;6291803;28;20095;-75
2022/07/23 17:56:30;;;;;;;13.48;8.82;;;;;;;;;;6296316;28;20052;-75
2022/07/23 17:59:32;;;;;;;10.40;7.55;;;;;;;;;;6294103;28;20060;-73
2022/07/23 18:02:33;;;;;;;9.03;6.80;;;;;;;;;;6292178;28;20041;-75
2022/07/23 18:05:35;;;;;;;8.93;6.57;;;;;;;;;;6291739;28;20463;-74
2022/07/23 18:08:37;;;;;;;9.57;7.32;;;;;;;;;;6291930;28;20056;-74
2022/07/23 18:11:41;;;;;;;8.67;6.40;;;;;;;;;;6292382;28;20049;-71
2022/07/23 18:14:43;;;;;;;8.20;6.68;;;;;;;;;;6293602;28;20474;-74